createdAt,value
2018-12-06T00:08:17.293Z,2.70
2018-12-06T00:13:51.551Z,2.70
2018-12-06T00:16:25.669Z,2.70
2018-12-06T00:19:08.285Z,2.70
2018-12-06T00:21:40.235Z,2.70
2018-12-06T00:24:12.573Z,2.70
2018-12-06T00:29:21.094Z,2.70
2018-12-06T00:31:55.337Z,2.70
2018-12-06T00:34:29.375Z,2.70
2018-12-06T00:37:03.468Z,2.70
2018-12-06T00:39:41.738Z,2.70
2018-12-06T00:42:15.818Z,2.70
2018-12-06T00:44:55.928Z,2.70
2018-12-06T00:47:29.727Z,2.70
2018-12-06T00:52:37.927Z,2.70
2018-12-06T00:55:12.017Z,2.70
2018-12-06T00:57:45.991Z,2.70
2018-12-06T01:02:54.931Z,2.70
2018-12-06T01:05:29.002Z,2.70
2018-12-06T01:10:37.843Z,2.70
2018-12-06T01:13:11.882Z,2.70
2018-12-06T01:15:46.122Z,2.70
2018-12-06T01:18:20.008Z,2.70
2018-12-06T01:20:51.942Z,2.70
2018-12-06T01:23:25.839Z,2.70
2018-12-06T01:26:01.832Z,2.70
2018-12-06T01:28:40.042Z,2.70
2018-12-06T01:31:14.224Z,2.70
2018-12-06T01:33:48.331Z,2.70
2018-12-06T01:36:26.326Z,2.70
2018-12-06T01:39:00.601Z,2.70
2018-12-06T01:41:32.051Z,2.70
2018-12-06T01:44:04.213Z,2.70
2018-12-06T01:46:38.532Z,2.70
2018-12-06T01:49:12.651Z,2.70
2018-12-06T01:51:46.789Z,2.70
2018-12-06T01:54:20.772Z,2.70
2018-12-06T01:56:55.088Z,2.70
2018-12-06T01:59:30.130Z,2.70
2018-12-06T02:02:08.223Z,2.70
2018-12-06T02:04:52.961Z,2.70
2018-12-06T04:10:21.099Z,2.60
2018-12-06T04:15:29.427Z,2.60
2018-12-06T04:23:41.243Z,2.50
2018-12-06T04:26:24.472Z,2.50
2018-12-06T04:32:01.431Z,2.40
2018-12-06T04:34:35.824Z,2.50
2018-12-06T04:37:09.578Z,2.40
2018-12-06T04:39:43.698Z,2.40
2018-12-06T04:42:19.750Z,2.40
2018-12-06T04:44:53.809Z,2.40
2018-12-06T04:47:29.422Z,2.40
2018-12-06T04:50:03.340Z,2.40
2018-12-06T04:52:49.632Z,2.40
2018-12-06T04:55:23.832Z,2.40
2018-12-06T04:57:57.949Z,2.40
2018-12-06T05:00:31.985Z,2.40
2018-12-06T05:03:06.051Z,2.40
2018-12-06T05:05:40.048Z,2.50
2018-12-06T05:13:24.073Z,2.40
2018-12-06T05:15:57.934Z,2.50
2018-12-06T05:21:03.143Z,2.40
2018-12-06T05:23:39.100Z,2.50
2018-12-06T05:26:15.064Z,2.50
2018-12-06T05:31:27.231Z,2.50
2018-12-06T05:34:01.327Z,2.50
2018-12-06T05:36:35.185Z,2.50
2018-12-06T05:39:11.202Z,2.50
2018-12-06T05:41:45.195Z,2.50
2018-12-06T05:44:19.160Z,2.50
2018-12-06T05:49:25.541Z,2.50
2018-12-06T05:51:59.964Z,2.50
2018-12-06T05:54:34.120Z,2.60
2018-12-06T05:57:09.398Z,2.60
2018-12-06T05:59:43.256Z,2.50
2018-12-06T06:02:17.416Z,2.50
2018-12-06T06:04:55.148Z,2.60
2018-12-06T06:10:04.128Z,2.50
2018-12-06T06:12:40.029Z,2.60
2018-12-06T06:17:47.845Z,2.50
2018-12-06T06:23:00.005Z,2.50
2018-12-06T06:25:31.640Z,2.50
2018-12-06T06:28:03.085Z,2.50
2018-12-06T06:33:24.696Z,2.50
2018-12-06T06:36:05.245Z,2.50
2018-12-06T06:38:39.338Z,2.50
2018-12-06T06:41:10.746Z,2.40
2018-12-06T06:43:44.943Z,2.40
2018-12-06T06:57:46.233Z,2.40
2018-12-06T07:03:16.144Z,1.60
2018-12-06T07:05:56.680Z,2.50
2018-12-06T07:08:24.867Z,2.40
2018-12-06T07:10:57.018Z,2.40
2018-12-06T07:13:28.677Z,2.40
2018-12-06T07:18:50.028Z,2.50
2018-12-06T07:21:18.289Z,2.50
2018-12-06T07:26:20.368Z,2.50
2018-12-06T07:29:01.018Z,2.50
2018-12-06T07:31:32.890Z,2.50
2018-12-06T07:36:58.666Z,2.50
2018-12-06T07:42:23.830Z,2.50
2018-12-06T07:44:52.231Z,2.50
2018-12-06T07:47:20.534Z,2.50
2018-12-06T07:49:52.579Z,2.50
2018-12-06T07:55:18.715Z,2.60
2018-12-06T08:00:44.690Z,2.60
2018-12-06T08:03:12.906Z,2.60
2018-12-06T08:05:41.205Z,2.70
2018-12-06T08:08:09.558Z,2.60
2018-12-06T08:10:37.754Z,2.70
2018-12-06T08:13:05.982Z,2.70
2018-12-06T08:15:34.285Z,2.80
2018-12-06T08:18:02.506Z,2.80
2018-12-06T08:20:30.714Z,2.80
2018-12-06T08:22:59.010Z,2.80
2018-12-06T08:25:27.215Z,2.90
2018-12-06T08:27:55.413Z,2.90
2018-12-06T08:30:23.626Z,2.90
2018-12-06T08:32:51.818Z,3.00
2018-12-06T08:35:20.047Z,3.00
2018-12-06T08:37:48.270Z,3.00
2018-12-06T08:40:16.677Z,3.00
2018-12-06T08:42:45.868Z,3.00
2018-12-06T08:45:14.607Z,3.10
2018-12-06T08:47:42.922Z,3.10
2018-12-06T08:50:11.353Z,3.20
2018-12-06T08:52:39.751Z,3.20
2018-12-06T08:55:08.540Z,3.20
2018-12-06T09:00:33.568Z,3.30
2018-12-06T09:03:01.848Z,3.40
2018-12-06T09:05:30.074Z,3.40
2018-12-06T09:07:58.365Z,3.50
2018-12-06T09:10:26.702Z,3.50
2018-12-06T09:12:54.954Z,3.50
2018-12-06T09:15:23.150Z,3.50
2018-12-06T09:17:51.464Z,3.50
2018-12-06T09:20:19.760Z,3.50
2018-12-06T09:22:48.040Z,3.50
2018-12-06T09:25:21.014Z,3.50
2018-12-06T09:27:46.474Z,3.60
2018-12-06T09:30:14.678Z,3.60
2018-12-06T09:35:40.769Z,3.60
2018-12-06T09:38:09.089Z,3.60
2018-12-06T09:40:37.374Z,3.60
2018-12-06T09:43:05.653Z,3.60
2018-12-06T09:45:33.996Z,3.60
2018-12-06T09:48:02.198Z,3.60
2018-12-06T09:50:30.698Z,3.60
2018-12-06T09:52:58.922Z,3.60
2018-12-06T09:55:27.114Z,3.60
2018-12-06T09:57:55.322Z,3.60
2018-12-06T10:00:23.798Z,3.60
2018-12-06T10:02:52.094Z,3.60
2018-12-06T10:05:20.311Z,3.60
2018-12-06T10:07:48.573Z,3.60
2018-12-06T10:10:16.886Z,3.70
2018-12-06T10:12:45.101Z,3.70
2018-12-06T10:15:13.478Z,3.70
2018-12-06T10:17:41.697Z,3.80
2018-12-06T10:20:10.187Z,3.80
2018-12-06T10:25:31.543Z,3.90
2018-12-06T10:28:05.667Z,3.90
2018-12-06T10:33:37.750Z,4.00
2018-12-06T10:36:15.447Z,4.10
2018-12-06T10:41:40.111Z,4.10
2018-12-06T10:47:08.166Z,4.20
2018-12-06T10:49:48.712Z,4.20
2018-12-06T10:52:17.046Z,4.20
2018-12-06T10:54:50.643Z,4.30
2018-12-06T10:57:22.255Z,4.30
2018-12-06T11:00:08.850Z,4.30
2018-12-06T11:05:25.013Z,4.50
2018-12-06T11:07:56.951Z,4.50
2018-12-06T11:10:30.978Z,4.50
2018-12-06T11:13:08.723Z,4.50
2018-12-06T11:15:42.815Z,4.60
2018-12-06T11:23:49.570Z,4.70
2018-12-06T11:26:17.803Z,4.70
2018-12-06T11:31:30.516Z,4.80
2018-12-06T11:36:36.168Z,4.90
2018-12-06T11:39:09.224Z,4.90
2018-12-06T11:41:43.535Z,5.00
2018-12-06T11:44:11.725Z,5.00
2018-12-06T11:46:39.921Z,5.10
2018-12-06T11:49:11.316Z,5.10
2018-12-06T11:51:45.701Z,5.20
2018-12-06T11:56:47.957Z,5.20
2018-12-06T11:59:22.930Z,5.30
2018-12-06T12:04:55.829Z,5.40
2018-12-06T12:07:27.204Z,5.40
2018-12-06T12:12:32.721Z,5.50
2018-12-06T12:15:07.336Z,5.50
2018-12-06T12:17:45.131Z,5.50
2018-12-06T12:28:41.609Z,5.70
2018-12-06T12:31:13.658Z,5.80
2018-12-06T12:36:19.250Z,5.80
2018-12-06T12:38:53.154Z,5.90
2018-12-06T12:41:26.969Z,5.90
2018-12-06T12:46:56.205Z,6.00
2018-12-06T12:49:40.774Z,6.10
2018-12-06T12:52:12.792Z,6.10
2018-12-06T12:54:44.719Z,6.20
2018-12-06T12:57:19.528Z,6.30
2018-12-06T13:08:48.337Z,6.40
2018-12-06T13:11:32.503Z,6.50
2018-12-06T13:14:00.672Z,6.50
2018-12-06T13:16:28.842Z,6.50
2018-12-06T13:18:57.091Z,6.50
2018-12-06T13:21:25.235Z,6.50
2018-12-06T13:24:00.239Z,6.50
2018-12-06T13:26:28.372Z,6.60
2018-12-06T13:31:54.872Z,6.60
2018-12-06T13:34:23.071Z,6.60
2018-12-06T13:36:53.362Z,6.60
2018-12-06T13:39:21.599Z,6.60
2018-12-06T13:41:49.755Z,6.60
2018-12-06T13:44:18.200Z,6.60
2018-12-06T13:46:46.548Z,6.60
2018-12-06T13:52:12.300Z,6.60
2018-12-06T13:57:40.800Z,6.70
2018-12-06T14:00:27.632Z,6.70
2018-12-06T14:02:59.077Z,6.70
2018-12-06T14:05:31.155Z,6.70
2018-12-06T14:08:03.055Z,6.70
2018-12-06T14:10:39.348Z,6.70
2018-12-06T14:13:07.543Z,6.70
2018-12-06T14:15:47.955Z,6.70
2018-12-06T14:21:16.906Z,7.50
2018-12-06T14:23:52.238Z,6.80
2018-12-06T14:26:20.492Z,6.80
2018-12-06T14:29:01.076Z,6.80
2018-12-06T14:31:29.282Z,6.80
2018-12-06T14:33:57.467Z,6.80
2018-12-06T14:36:25.707Z,6.90
2018-12-06T14:38:57.981Z,6.80
2018-12-06T14:41:26.147Z,6.90
2018-12-06T14:46:25.628Z,6.90
2018-12-06T14:48:53.903Z,6.90
2018-12-06T14:51:22.090Z,6.90
2018-12-06T14:53:50.288Z,6.90
2018-12-06T14:56:18.443Z,6.90
2018-12-06T14:58:46.715Z,6.90
2018-12-06T15:01:14.955Z,7.00
2018-12-06T15:03:43.168Z,7.00
2018-12-06T15:06:11.341Z,7.00
2018-12-06T15:08:39.532Z,7.00
2018-12-06T15:11:07.803Z,7.00
2018-12-06T15:13:36.038Z,7.00
2018-12-06T15:16:04.402Z,7.00
2018-12-06T15:18:32.563Z,7.00
2018-12-06T15:21:00.735Z,7.00
2018-12-06T15:23:28.915Z,7.00
2018-12-06T15:25:57.190Z,7.10
2018-12-06T15:28:25.452Z,7.10
2018-12-06T15:30:53.679Z,7.10
2018-12-06T15:33:21.855Z,7.00
2018-12-06T15:35:50.123Z,7.00
2018-12-06T15:38:18.342Z,7.00
2018-12-06T15:40:46.723Z,7.00
2018-12-06T15:43:14.982Z,7.10
2018-12-06T15:45:43.188Z,7.10
2018-12-06T15:48:11.397Z,7.10
2018-12-06T15:50:39.711Z,7.10
2018-12-06T15:53:07.980Z,7.10
2018-12-06T15:55:36.368Z,7.20
2018-12-06T15:58:04.732Z,7.20
2018-12-06T16:00:32.947Z,7.30
2018-12-06T16:03:01.139Z,7.30
2018-12-06T16:05:29.552Z,7.40
2018-12-06T16:07:57.716Z,7.40
2018-12-06T16:10:26.111Z,7.40
2018-12-06T16:12:54.327Z,7.40
2018-12-06T16:15:22.593Z,7.50
2018-12-06T16:17:50.780Z,7.50
2018-12-06T16:20:19.020Z,7.50
2018-12-06T16:22:47.188Z,7.60
2018-12-06T16:25:15.483Z,7.60
2018-12-06T16:27:43.789Z,7.60
2018-12-06T16:30:12.228Z,7.70
2018-12-06T16:32:40.583Z,7.70
2018-12-06T16:35:08.884Z,7.70
2018-12-06T16:37:37.085Z,7.80
2018-12-06T16:40:06.281Z,7.80
2018-12-06T16:42:34.657Z,7.80
2018-12-06T16:45:03.167Z,7.80
2018-12-06T16:47:37.373Z,7.90
2018-12-06T16:50:09.668Z,7.90
2018-12-06T16:53:14.682Z,7.90
2018-12-06T16:55:48.780Z,7.90
2018-12-06T17:03:39.392Z,8.00
2018-12-06T17:06:07.685Z,8.00
2018-12-06T17:08:41.468Z,8.10
2018-12-06T17:11:30.638Z,8.00
2018-12-06T17:14:11.857Z,8.00
2018-12-06T17:16:47.185Z,8.00
2018-12-06T17:22:50.255Z,8.00
2018-12-06T17:25:42.971Z,8.00
2018-12-06T17:28:17.962Z,8.00
2018-12-06T17:30:58.401Z,8.00
2018-12-06T17:36:06.810Z,8.00
2018-12-06T17:38:49.227Z,8.00
2018-12-06T17:41:28.776Z,8.00
2018-12-06T17:44:03.559Z,8.00
2018-12-06T17:46:40.282Z,8.00
2018-12-06T17:49:15.615Z,8.00
2018-12-06T17:51:54.226Z,8.00
2018-12-06T17:54:34.928Z,8.00
2018-12-06T17:57:09.687Z,8.00
2018-12-06T17:59:44.019Z,8.00
2018-12-06T18:02:14.725Z,8.00
2018-12-06T18:04:52.687Z,8.00
2018-12-06T18:10:00.195Z,8.00
2018-12-06T18:12:41.327Z,8.00
2018-12-06T18:15:19.420Z,8.00
2018-12-06T18:17:54.108Z,8.00
2018-12-06T18:26:31.126Z,8.00
2018-12-06T18:29:13.434Z,8.10
2018-12-06T18:31:55.094Z,8.10
2018-12-06T18:34:51.243Z,8.10
2018-12-06T18:45:49.279Z,8.10
2018-12-06T18:51:04.443Z,8.10
2018-12-06T18:53:39.795Z,8.10
2018-12-06T18:56:16.568Z,8.00
2018-12-06T19:09:30.846Z,8.00
2018-12-06T19:14:42.967Z,8.10
2018-12-06T19:17:22.082Z,8.10
2018-12-06T19:20:02.455Z,8.10
2018-12-06T19:22:37.617Z,8.10
2018-12-06T19:25:15.144Z,8.10
2018-12-06T19:30:23.448Z,8.20
2018-12-06T19:38:26.608Z,8.10
2018-12-06T19:41:01.897Z,8.10
2018-12-06T19:46:44.212Z,8.10
2018-12-06T19:52:16.843Z,8.10
2018-12-06T19:57:28.960Z,8.10
2018-12-06T20:07:44.563Z,8.10
2018-12-06T20:10:16.804Z,8.10
2018-12-06T20:12:50.687Z,8.10
2018-12-06T20:15:22.155Z,8.10
2018-12-06T20:23:22.253Z,8.10
2018-12-06T20:26:02.863Z,8.00
2018-12-06T20:28:34.539Z,8.00
2018-12-06T20:33:41.695Z,8.00
2018-12-06T20:36:19.961Z,8.00
2018-12-06T20:38:53.686Z,8.00
2018-12-06T20:41:26.435Z,7.90
2018-12-06T20:49:19.108Z,8.00
2018-12-06T20:54:26.339Z,8.00
2018-12-06T20:57:00.388Z,8.00
2018-12-06T21:02:04.146Z,8.00
2018-12-06T21:09:43.132Z,8.00
2018-12-06T21:12:11.431Z,8.00
2018-12-06T21:14:39.676Z,8.00
2018-12-06T21:17:17.293Z,8.00
2018-12-06T21:20:04.680Z,8.00
2018-12-06T21:22:32.867Z,8.00
2018-12-06T21:25:05.305Z,8.00
2018-12-06T21:30:28.412Z,8.00
2018-12-06T21:33:08.950Z,8.00
2018-12-06T21:38:21.830Z,8.00
2018-12-06T21:40:55.939Z,8.00
2018-12-06T21:43:29.794Z,8.00
2018-12-06T21:46:03.659Z,8.10
2018-12-06T21:51:07.138Z,8.10
2018-12-06T21:53:41.527Z,8.10
2018-12-06T21:56:15.578Z,8.10
2018-12-06T22:08:56.953Z,8.00
2018-12-06T22:11:32.727Z,8.00
2018-12-06T22:14:06.541Z,8.10
2018-12-06T22:16:37.991Z,8.00
2018-12-06T22:19:16.332Z,8.00
2018-12-06T22:24:19.671Z,8.00
2018-12-06T22:26:58.285Z,8.00
2018-12-06T22:32:08.838Z,8.00
2018-12-06T22:34:37.104Z,8.00
2018-12-06T22:37:05.418Z,8.00
2018-12-06T22:39:33.685Z,8.00
2018-12-06T22:42:02.042Z,8.00
2018-12-06T22:44:30.345Z,8.00
2018-12-06T22:46:58.589Z,8.00
2018-12-06T22:49:26.855Z,8.00
2018-12-06T22:51:55.099Z,8.00
2018-12-06T22:54:23.363Z,8.00
2018-12-06T22:56:51.681Z,8.00
2018-12-06T22:59:20.047Z,8.00
2018-12-06T23:01:49.889Z,8.00
2018-12-06T23:04:18.379Z,8.10
2018-12-06T23:06:46.695Z,8.10
2018-12-06T23:09:14.995Z,8.10
2018-12-06T23:11:43.442Z,8.10
2018-12-06T23:14:11.665Z,8.10
2018-12-06T23:16:39.951Z,8.10
2018-12-06T23:19:08.376Z,8.20
2018-12-06T23:21:36.624Z,8.20
2018-12-06T23:24:04.918Z,8.20
2018-12-06T23:31:44.470Z,8.40
2018-12-06T23:34:12.753Z,8.40
2018-12-06T23:36:41.000Z,8.40
2018-12-06T23:39:09.350Z,8.50
2018-12-06T23:41:37.582Z,8.50
2018-12-06T23:44:05.833Z,8.50
2018-12-06T23:49:37.245Z,8.50
2018-12-06T23:52:12.939Z,8.50
